sensor_id;sensor_type;location;lat;lon;timestamp;temperature;humidity
18712;DHT22;9485;49.386;8.674;2023-08-31T00:04:57;18.90;83.10
18712;DHT22;9485;49.386;8.674;2023-08-31T00:10:18;18.80;83.40
18712;DHT22;9485;49.386;8.674;2023-08-31T00:15:41;18.90;83.70
18712;DHT22;9485;49.386;8.674;2023-08-31T00:21:04;18.90;84.00
18712;DHT22;9485;49.386;8.674;2023-08-31T00:26:25;18.90;84.90
18712;DHT22;9485;49.386;8.674;2023-08-31T00:31:48;19.00;84.30
18712;DHT22;9485;49.386;8.674;2023-08-31T00:37:11;19.00;84.10
18712;DHT22;9485;49.386;8.674;2023-08-31T00:42:33;19.00;83.90
18712;DHT22;9485;49.386;8.674;2023-08-31T00:47:54;19.00;83.60
18712;DHT22;9485;49.386;8.674;2023-08-31T00:53:17;18.90;83.60
18712;DHT22;9485;49.386;8.674;2023-08-31T00:58:39;18.90;83.60
18712;DHT22;9485;49.386;8.674;2023-08-31T01:04:07;18.80;83.80
18712;DHT22;9485;49.386;8.674;2023-08-31T01:09:47;18.90;84.00
18712;DHT22;9485;49.386;8.674;2023-08-31T01:15:26;18.90;83.30
18712;DHT22;9485;49.386;8.674;2023-08-31T01:20:55;18.90;84.10
18712;DHT22;9485;49.386;8.674;2023-08-31T01:26:23;18.90;84.00
18712;DHT22;9485;49.386;8.674;2023-08-31T01:31:45;18.80;83.90
18712;DHT22;9485;49.386;8.674;2023-08-31T01:37:13;18.80;84.00
18712;DHT22;9485;49.386;8.674;2023-08-31T01:42:42;18.90;84.10
18712;DHT22;9485;49.386;8.674;2023-08-31T01:48:04;18.80;84.00
18712;DHT22;9485;49.386;8.674;2023-08-31T01:53:26;18.80;84.00
18712;DHT22;9485;49.386;8.674;2023-08-31T01:58:47;18.80;84.10
18712;DHT22;9485;49.386;8.674;2023-08-31T02:04:08;18.80;84.20
18712;DHT22;9485;49.386;8.674;2023-08-31T02:09:29;18.80;84.20
18712;DHT22;9485;49.386;8.674;2023-08-31T02:14:51;18.80;84.30
18712;DHT22;9485;49.386;8.674;2023-08-31T02:20:13;18.80;84.30
18712;DHT22;9485;49.386;8.674;2023-08-31T02:25:35;18.80;84.30
18712;DHT22;9485;49.386;8.674;2023-08-31T02:31:01;18.80;84.30
18712;DHT22;9485;49.386;8.674;2023-08-31T02:36:23;18.80;84.40
18712;DHT22;9485;49.386;8.674;2023-08-31T02:41:44;18.70;84.40
18712;DHT22;9485;49.386;8.674;2023-08-31T02:47:06;18.80;84.60
18712;DHT22;9485;49.386;8.674;2023-08-31T02:52:27;18.70;84.50
18712;DHT22;9485;49.386;8.674;2023-08-31T02:57:48;18.70;84.40
18712;DHT22;9485;49.386;8.674;2023-08-31T03:03:11;18.70;84.40
18712;DHT22;9485;49.386;8.674;2023-08-31T03:08:32;18.70;84.50
18712;DHT22;9485;49.386;8.674;2023-08-31T03:13:53;18.70;84.60
18712;DHT22;9485;49.386;8.674;2023-08-31T03:19:15;18.70;84.80
18712;DHT22;9485;49.386;8.674;2023-08-31T03:24:35;18.70;84.80
18712;DHT22;9485;49.386;8.674;2023-08-31T03:29:56;18.70;85.00
18712;DHT22;9485;49.386;8.674;2023-08-31T03:35:20;18.70;85.80
18712;DHT22;9485;49.386;8.674;2023-08-31T03:40:53;18.70;85.00
18712;DHT22;9485;49.386;8.674;2023-08-31T03:46:14;18.70;84.90
18712;DHT22;9485;49.386;8.674;2023-08-31T03:51:36;18.70;85.00
18712;DHT22;9485;49.386;8.674;2023-08-31T03:57:00;18.80;85.10
18712;DHT22;9485;49.386;8.674;2023-08-31T04:02:20;18.70;85.20
18712;DHT22;9485;49.386;8.674;2023-08-31T04:07:45;18.80;85.30
18712;DHT22;9485;49.386;8.674;2023-08-31T04:13:06;18.80;85.30
18712;DHT22;9485;49.386;8.674;2023-08-31T04:18:27;18.80;85.40
18712;DHT22;9485;49.386;8.674;2023-08-31T04:23:49;18.80;85.50
18712;DHT22;9485;49.386;8.674;2023-08-31T04:29:10;18.80;85.20
18712;DHT22;9485;49.386;8.674;2023-08-31T04:34:30;18.90;85.20
18712;DHT22;9485;49.386;8.674;2023-08-31T04:39:53;18.80;85.20
18712;DHT22;9485;49.386;8.674;2023-08-31T04:45:13;18.90;85.10
18712;DHT22;9485;49.386;8.674;2023-08-31T04:50:35;18.80;85.20
18712;DHT22;9485;49.386;8.674;2023-08-31T04:55:58;18.80;85.20
18712;DHT22;9485;49.386;8.674;2023-08-31T05:01:19;18.80;85.10
18712;DHT22;9485;49.386;8.674;2023-08-31T05:06:39;18.80;85.20
18712;DHT22;9485;49.386;8.674;2023-08-31T05:12:04;18.80;85.20
18712;DHT22;9485;49.386;8.674;2023-08-31T05:17:26;18.80;85.00
18712;DHT22;9485;49.386;8.674;2023-08-31T05:22:48;18.80;85.10
18712;DHT22;9485;49.386;8.674;2023-08-31T05:28:10;18.80;85.10
18712;DHT22;9485;49.386;8.674;2023-08-31T05:33:30;18.80;85.10
18712;DHT22;9485;49.386;8.674;2023-08-31T05:38:53;18.80;85.10
18712;DHT22;9485;49.386;8.674;2023-08-31T05:44:16;18.80;85.30
18712;DHT22;9485;49.386;8.674;2023-08-31T05:49:37;18.90;85.20
18712;DHT22;9485;49.386;8.674;2023-08-31T05:54:58;18.90;85.10
18712;DHT22;9485;49.386;8.674;2023-08-31T06:00:21;18.90;85.10
18712;DHT22;9485;49.386;8.674;2023-08-31T06:05:41;19.00;85.10
18712;DHT22;9485;49.386;8.674;2023-08-31T06:11:02;18.90;85.20
18712;DHT22;9485;49.386;8.674;2023-08-31T06:16:24;19.00;85.10
18712;DHT22;9485;49.386;8.674;2023-08-31T06:21:45;19.00;85.10
18712;DHT22;9485;49.386;8.674;2023-08-31T06:27:08;19.10;85.30
18712;DHT22;9485;49.386;8.674;2023-08-31T06:32:30;19.10;85.60
18712;DHT22;9485;49.386;8.674;2023-08-31T06:37:51;19.20;85.50
18712;DHT22;9485;49.386;8.674;2023-08-31T06:43:12;19.30;85.60
18712;DHT22;9485;49.386;8.674;2023-08-31T06:48:35;19.50;86.00
18712;DHT22;9485;49.386;8.674;2023-08-31T06:53:58;19.90;86.50
18712;DHT22;9485;49.386;8.674;2023-08-31T06:59:24;19.90;87.30
18712;DHT22;9485;49.386;8.674;2023-08-31T07:04:46;20.50;88.30
18712;DHT22;9485;49.386;8.674;2023-08-31T07:10:11;21.20;87.20
18712;DHT22;9485;49.386;8.674;2023-08-31T07:15:33;21.70;86.90
18712;DHT22;9485;49.386;8.674;2023-08-31T07:20:55;22.30;86.10
18712;DHT22;9485;49.386;8.674;2023-08-31T07:26:15;22.80;84.70
18712;DHT22;9485;49.386;8.674;2023-08-31T07:31:36;23.10;83.50
18712;DHT22;9485;49.386;8.674;2023-08-31T07:36:59;23.30;81.70
18712;DHT22;9485;49.386;8.674;2023-08-31T07:42:20;23.40;82.10
18712;DHT22;9485;49.386;8.674;2023-08-31T07:47:40;23.80;84.50
18712;DHT22;9485;49.386;8.674;2023-08-31T07:53:02;24.50;83.90
18712;DHT22;9485;49.386;8.674;2023-08-31T07:58:23;25.00;81.50
18712;DHT22;9485;49.386;8.674;2023-08-31T08:03:45;25.30;79.50
18712;DHT22;9485;49.386;8.674;2023-08-31T08:09:07;25.40;77.10
18712;DHT22;9485;49.386;8.674;2023-08-31T08:14:28;25.20;74.80
18712;DHT22;9485;49.386;8.674;2023-08-31T08:19:48;24.90;74.30
18712;DHT22;9485;49.386;8.674;2023-08-31T08:25:11;24.50;74.50
18712;DHT22;9485;49.386;8.674;2023-08-31T08:30:32;24.20;74.90
18712;DHT22;9485;49.386;8.674;2023-08-31T08:35:56;23.90;75.20
18712;DHT22;9485;49.386;8.674;2023-08-31T08:41:23;23.60;75.40
18712;DHT22;9485;49.386;8.674;2023-08-31T08:46:44;23.40;75.00
18712;DHT22;9485;49.386;8.674;2023-08-31T08:52:09;23.30;76.00
18712;DHT22;9485;49.386;8.674;2023-08-31T08:57:32;23.20;76.20
18712;DHT22;9485;49.386;8.674;2023-08-31T09:02:53;23.10;75.70
18712;DHT22;9485;49.386;8.674;2023-08-31T09:08:13;23.00;76.70
18712;DHT22;9485;49.386;8.674;2023-08-31T09:13:36;23.00;77.60
18712;DHT22;9485;49.386;8.674;2023-08-31T09:18:58;23.10;78.30
18712;DHT22;9485;49.386;8.674;2023-08-31T09:24:21;23.30;79.70
18712;DHT22;9485;49.386;8.674;2023-08-31T09:29:46;23.50;79.20
18712;DHT22;9485;49.386;8.674;2023-08-31T09:35:08;23.80;78.50
18712;DHT22;9485;49.386;8.674;2023-08-31T09:40:30;24.10;79.20
18712;DHT22;9485;49.386;8.674;2023-08-31T09:45:52;24.20;77.80
18712;DHT22;9485;49.386;8.674;2023-08-31T09:51:14;24.40;76.80
18712;DHT22;9485;49.386;8.674;2023-08-31T09:56:41;24.50;76.80
18712;DHT22;9485;49.386;8.674;2023-08-31T10:02:04;24.50;76.40
18712;DHT22;9485;49.386;8.674;2023-08-31T10:07:27;24.70;76.20
18712;DHT22;9485;49.386;8.674;2023-08-31T10:12:50;24.90;76.60
18712;DHT22;9485;49.386;8.674;2023-08-31T10:18:13;25.10;75.70
18712;DHT22;9485;49.386;8.674;2023-08-31T10:23:34;25.20;74.20
18712;DHT22;9485;49.386;8.674;2023-08-31T10:28:56;25.20;74.60
18712;DHT22;9485;49.386;8.674;2023-08-31T10:34:34;25.40;74.20
18712;DHT22;9485;49.386;8.674;2023-08-31T10:40:07;25.70;71.80
18712;DHT22;9485;49.386;8.674;2023-08-31T10:45:30;26.40;72.40
18712;DHT22;9485;49.386;8.674;2023-08-31T10:51:05;27.20;74.90
18712;DHT22;9485;49.386;8.674;2023-08-31T10:56:29;27.90;72.00
18712;DHT22;9485;49.386;8.674;2023-08-31T11:01:56;28.40;69.40
18712;DHT22;9485;49.386;8.674;2023-08-31T11:07:24;29.30;67.60
18712;DHT22;9485;49.386;8.674;2023-08-31T11:12:47;30.20;64.90
18712;DHT22;9485;49.386;8.674;2023-08-31T11:18:08;31.00;64.00
18712;DHT22;9485;49.386;8.674;2023-08-31T11:23:30;31.20;63.70
18712;DHT22;9485;49.386;8.674;2023-08-31T11:28:51;30.80;62.40
18712;DHT22;9485;49.386;8.674;2023-08-31T11:34:12;30.50;62.70
18712;DHT22;9485;49.386;8.674;2023-08-31T11:39:37;29.90;62.60
18712;DHT22;9485;49.386;8.674;2023-08-31T11:44:59;29.30;61.30
18712;DHT22;9485;49.386;8.674;2023-08-31T11:50:22;28.80;62.40
18712;DHT22;9485;49.386;8.674;2023-08-31T11:55:51;28.30;62.80
18712;DHT22;9485;49.386;8.674;2023-08-31T12:01:19;28.10;62.20
18712;DHT22;9485;49.386;8.674;2023-08-31T12:06:41;27.90;62.00
18712;DHT22;9485;49.386;8.674;2023-08-31T12:12:07;27.60;64.10
18712;DHT22;9485;49.386;8.674;2023-08-31T12:17:28;27.60;63.50
18712;DHT22;9485;49.386;8.674;2023-08-31T12:22:49;27.80;64.60
18712;DHT22;9485;49.386;8.674;2023-08-31T12:28:11;28.00;64.50
18712;DHT22;9485;49.386;8.674;2023-08-31T12:33:31;27.90;63.90
18712;DHT22;9485;49.386;8.674;2023-08-31T12:38:52;28.00;64.30
18712;DHT22;9485;49.386;8.674;2023-08-31T12:44:14;28.20;64.40
18712;DHT22;9485;49.386;8.674;2023-08-31T12:49:34;28.20;63.20
18712;DHT22;9485;49.386;8.674;2023-08-31T12:54:55;28.00;63.70
18712;DHT22;9485;49.386;8.674;2023-08-31T13:00:18;27.90;63.90
18712;DHT22;9485;49.386;8.674;2023-08-31T13:05:39;27.70;62.90
18712;DHT22;9485;49.386;8.674;2023-08-31T13:11:00;27.50;64.00
18712;DHT22;9485;49.386;8.674;2023-08-31T13:16:24;27.30;63.70
18712;DHT22;9485;49.386;8.674;2023-08-31T13:21:44;27.10;64.00
18712;DHT22;9485;49.386;8.674;2023-08-31T13:27:05;27.30;66.40
18712;DHT22;9485;49.386;8.674;2023-08-31T13:32:30;27.80;66.20
18712;DHT22;9485;49.386;8.674;2023-08-31T13:37:51;28.80;65.90
18712;DHT22;9485;49.386;8.674;2023-08-31T13:43:12;28.80;65.80
18712;DHT22;9485;49.386;8.674;2023-08-31T13:48:34;29.30;65.70
18712;DHT22;9485;49.386;8.674;2023-08-31T13:53:55;29.80;63.80
18712;DHT22;9485;49.386;8.674;2023-08-31T13:59:16;30.10;63.30
18712;DHT22;9485;49.386;8.674;2023-08-31T14:04:38;30.00;62.50
18712;DHT22;9485;49.386;8.674;2023-08-31T14:09:58;29.70;61.30
18712;DHT22;9485;49.386;8.674;2023-08-31T14:15:20;29.40;61.90
18712;DHT22;9485;49.386;8.674;2023-08-31T14:20:42;29.20;62.50
18712;DHT22;9485;49.386;8.674;2023-08-31T14:26:04;29.00;60.90
18712;DHT22;9485;49.386;8.674;2023-08-31T14:31:27;28.80;61.30
18712;DHT22;9485;49.386;8.674;2023-08-31T14:36:49;28.50;60.90
18712;DHT22;9485;49.386;8.674;2023-08-31T14:42:12;28.20;60.20
18712;DHT22;9485;49.386;8.674;2023-08-31T14:47:34;27.80;60.50
18712;DHT22;9485;49.386;8.674;2023-08-31T14:52:56;27.30;60.90
18712;DHT22;9485;49.386;8.674;2023-08-31T14:58:17;26.90;60.20
18712;DHT22;9485;49.386;8.674;2023-08-31T15:03:37;26.50;60.50
18712;DHT22;9485;49.386;8.674;2023-08-31T15:09:00;26.10;60.60
18712;DHT22;9485;49.386;8.674;2023-08-31T15:14:20;25.80;61.00
18712;DHT22;9485;49.386;8.674;2023-08-31T15:19:41;25.50;62.00
18712;DHT22;9485;49.386;8.674;2023-08-31T15:25:04;25.40;62.70
18712;DHT22;9485;49.386;8.674;2023-08-31T15:30:25;25.30;62.40
18712;DHT22;9485;49.386;8.674;2023-08-31T15:35:45;25.30;63.20
18712;DHT22;9485;49.386;8.674;2023-08-31T15:41:07;25.30;63.30
18712;DHT22;9485;49.386;8.674;2023-08-31T15:46:29;25.20;62.50
18712;DHT22;9485;49.386;8.674;2023-08-31T15:51:50;25.10;62.80
18712;DHT22;9485;49.386;8.674;2023-08-31T15:57:12;24.90;62.80
18712;DHT22;9485;49.386;8.674;2023-08-31T16:02:33;24.80;62.80
18712;DHT22;9485;49.386;8.674;2023-08-31T16:07:57;24.70;63.10
18712;DHT22;9485;49.386;8.674;2023-08-31T16:13:21;24.60;63.10
18712;DHT22;9485;49.386;8.674;2023-08-31T16:18:42;24.40;63.10
18712;DHT22;9485;49.386;8.674;2023-08-31T16:24:03;24.20;63.40
18712;DHT22;9485;49.386;8.674;2023-08-31T16:29:25;24.20;63.90
18712;DHT22;9485;49.386;8.674;2023-08-31T16:34:48;24.10;63.90
18712;DHT22;9485;49.386;8.674;2023-08-31T16:40:12;24.00;64.30
18712;DHT22;9485;49.386;8.674;2023-08-31T16:45:34;24.00;64.80
18712;DHT22;9485;49.386;8.674;2023-08-31T16:50:56;23.80;64.60
18712;DHT22;9485;49.386;8.674;2023-08-31T16:56:16;23.70;64.90
18712;DHT22;9485;49.386;8.674;2023-08-31T17:01:39;23.50;65.40
18712;DHT22;9485;49.386;8.674;2023-08-31T17:06:59;23.40;65.60
18712;DHT22;9485;49.386;8.674;2023-08-31T17:12:22;23.40;66.50
18712;DHT22;9485;49.386;8.674;2023-08-31T17:17:44;23.30;67.10
18712;DHT22;9485;49.386;8.674;2023-08-31T17:23:05;23.30;67.00
18712;DHT22;9485;49.386;8.674;2023-08-31T17:28:26;23.20;67.10
18712;DHT22;9485;49.386;8.674;2023-08-31T17:33:49;23.10;67.20
18712;DHT22;9485;49.386;8.674;2023-08-31T17:39:10;23.00;67.20
18712;DHT22;9485;49.386;8.674;2023-08-31T17:44:33;23.00;67.50
18712;DHT22;9485;49.386;8.674;2023-08-31T17:49:55;22.90;67.90
18712;DHT22;9485;49.386;8.674;2023-08-31T17:55:15;22.70;68.20
18712;DHT22;9485;49.386;8.674;2023-08-31T18:00:36;22.60;68.70
18712;DHT22;9485;49.386;8.674;2023-08-31T18:05:58;22.40;68.90
18712;DHT22;9485;49.386;8.674;2023-08-31T18:11:19;22.20;69.00
18712;DHT22;9485;49.386;8.674;2023-08-31T18:16:39;22.00;69.40
18712;DHT22;9485;49.386;8.674;2023-08-31T18:22:02;21.90;69.90
18712;DHT22;9485;49.386;8.674;2023-08-31T18:27:23;21.60;70.90
18712;DHT22;9485;49.386;8.674;2023-08-31T18:32:43;21.40;71.60
18712;DHT22;9485;49.386;8.674;2023-08-31T18:38:05;21.20;72.40
18712;DHT22;9485;49.386;8.674;2023-08-31T18:43:26;21.00;72.80
18712;DHT22;9485;49.386;8.674;2023-08-31T18:48:47;20.90;73.20
18712;DHT22;9485;49.386;8.674;2023-08-31T18:54:09;20.80;73.90
18712;DHT22;9485;49.386;8.674;2023-08-31T18:59:30;20.70;74.60
18712;DHT22;9485;49.386;8.674;2023-08-31T19:04:52;20.60;75.00
18712;DHT22;9485;49.386;8.674;2023-08-31T19:10:15;20.50;75.30
18712;DHT22;9485;49.386;8.674;2023-08-31T19:15:36;20.40;75.60
18712;DHT22;9485;49.386;8.674;2023-08-31T19:20:59;20.40;75.90
18712;DHT22;9485;49.386;8.674;2023-08-31T19:26:23;20.30;76.20
18712;DHT22;9485;49.386;8.674;2023-08-31T19:31:44;20.20;76.50
18712;DHT22;9485;49.386;8.674;2023-08-31T19:37:05;20.20;76.60
18712;DHT22;9485;49.386;8.674;2023-08-31T19:42:27;20.10;76.80
18712;DHT22;9485;49.386;8.674;2023-08-31T19:47:48;20.00;77.20
18712;DHT22;9485;49.386;8.674;2023-08-31T19:53:10;20.00;77.40
18712;DHT22;9485;49.386;8.674;2023-08-31T19:58:33;19.90;77.60
18712;DHT22;9485;49.386;8.674;2023-08-31T20:03:54;19.90;78.20
18712;DHT22;9485;49.386;8.674;2023-08-31T20:09:16;19.90;78.30
18712;DHT22;9485;49.386;8.674;2023-08-31T20:14:38;19.80;78.80
18712;DHT22;9485;49.386;8.674;2023-08-31T20:19:59;19.70;79.30
18712;DHT22;9485;49.386;8.674;2023-08-31T20:25:20;19.70;80.00
18712;DHT22;9485;49.386;8.674;2023-08-31T20:30:42;19.70;80.50
18712;DHT22;9485;49.386;8.674;2023-08-31T20:36:05;19.70;81.20
18712;DHT22;9485;49.386;8.674;2023-08-31T20:41:27;19.70;82.00
18712;DHT22;9485;49.386;8.674;2023-08-31T20:46:49;19.70;82.30
18712;DHT22;9485;49.386;8.674;2023-08-31T20:52:10;19.60;82.40
18712;DHT22;9485;49.386;8.674;2023-08-31T20:57:32;19.50;82.70
18712;DHT22;9485;49.386;8.674;2023-08-31T21:02:55;19.50;83.40
18712;DHT22;9485;49.386;8.674;2023-08-31T21:08:16;19.50;84.10
18712;DHT22;9485;49.386;8.674;2023-08-31T21:13:37;19.40;84.30
18712;DHT22;9485;49.386;8.674;2023-08-31T21:18:59;19.40;84.60
18712;DHT22;9485;49.386;8.674;2023-08-31T21:24:23;19.40;85.70
18712;DHT22;9485;49.386;8.674;2023-08-31T21:29:44;19.30;85.20
18712;DHT22;9485;49.386;8.674;2023-08-31T21:35:06;19.30;85.60
18712;DHT22;9485;49.386;8.674;2023-08-31T21:40:27;19.30;85.90
18712;DHT22;9485;49.386;8.674;2023-08-31T21:45:48;19.20;86.10
18712;DHT22;9485;49.386;8.674;2023-08-31T21:51:10;19.20;84.80
18712;DHT22;9485;49.386;8.674;2023-08-31T21:56:30;19.20;86.30
18712;DHT22;9485;49.386;8.674;2023-08-31T22:01:53;19.10;86.40
18712;DHT22;9485;49.386;8.674;2023-08-31T22:07:15;19.10;86.20
18712;DHT22;9485;49.386;8.674;2023-08-31T22:12:39;19.10;86.90
18712;DHT22;9485;49.386;8.674;2023-08-31T22:18:02;19.00;87.40
18712;DHT22;9485;49.386;8.674;2023-08-31T22:23:24;19.00;86.80
18712;DHT22;9485;49.386;8.674;2023-08-31T22:28:45;18.90;87.10
18712;DHT22;9485;49.386;8.674;2023-08-31T22:34:05;18.80;87.20
18712;DHT22;9485;49.386;8.674;2023-08-31T22:39:28;18.80;87.60
18712;DHT22;9485;49.386;8.674;2023-08-31T22:44:48;18.80;87.70
18712;DHT22;9485;49.386;8.674;2023-08-31T22:50:09;18.80;88.20
18712;DHT22;9485;49.386;8.674;2023-08-31T22:55:31;18.80;88.40
18712;DHT22;9485;49.386;8.674;2023-08-31T23:00:51;18.80;88.50
18712;DHT22;9485;49.386;8.674;2023-08-31T23:06:12;18.90;88.70
18712;DHT22;9485;49.386;8.674;2023-08-31T23:11:35;18.80;88.80
18712;DHT22;9485;49.386;8.674;2023-08-31T23:16:56;18.80;88.80
18712;DHT22;9485;49.386;8.674;2023-08-31T23:22:16;18.80;88.90
18712;DHT22;9485;49.386;8.674;2023-08-31T23:27:40;18.80;89.10
18712;DHT22;9485;49.386;8.674;2023-08-31T23:33:02;18.80;89.30
18712;DHT22;9485;49.386;8.674;2023-08-31T23:38:24;18.90;89.30
18712;DHT22;9485;49.386;8.674;2023-08-31T23:43:46;18.90;89.20
18712;DHT22;9485;49.386;8.674;2023-08-31T23:49:07;18.80;89.20
18712;DHT22;9485;49.386;8.674;2023-08-31T23:54:30;18.80;89.30
18712;DHT22;9485;49.386;8.674;2023-08-31T23:59:54;18.80;89.50
